Alden, Wisconsin
Current Conditions -  °F | °C
As of 3:15 PM on Monday 24 Nov 2014 (Local Time) from KRNH Reporting Station
Light Snow Light Snow  
Wind Chill:   Ceiling: 2100
Heat Index: 22°   Visibility: 4mi
Dew Point: 18°   Wind: 20mph
Humidity: 85%   Direction: 320°NW
Pressure: 29.52"   Gusts: 28mph
Location:  45.1804°N, 92.551°W
Report Text: KRNH 242115Z AUTO 32017G24KT 4SM -SN BKN021 OVC042 M05/M08 A2952 RMK AO2 T10551077
Loading
Personal Weather Stations






























Interactive Weather Map New forecast layout! Learn more

10-Day Weather Forecast

Advertisements
Track Severe Weather on mobile